Have a Safe July 4th! 

Flight Track Log - Related Links

Times and Time Zones

All times are in EDT time to prevent confusion due to time zone crossing. See the KAP29 flight status page for this flight to view local times or setup timezone preferences in your user account.

Time Position Orientation Groundspeed Altitude Reporting Facility
EDT Latitude Longitude Course Direction KTS MPH feet Rate Location/Type
Sat 01:39:30 PM 42.3667 -71.0167 216° Southwest 111 128 400  Level KA90
Sat 01:40:18 PM 42.3500 -71.0333 216° Southwest 108 124 1,100 833 Climbing KA90
Sat 01:41:18 PM 42.3833 -71.0667 324° Northwest 109 125 1,900 700 Climbing KA90
Sat 01:42:18 PM 42.4000 -71.0833 324° Northwest 101 116 2,500 524 Climbing KA90
Sat 01:43:24 PM 42.4333 -71.0833 360° North 112 129 3,000 476 Climbing KA90
Sat 01:44:24 PM 42.4667 -71.0833 360° North 108 124 3,500 526 Climbing KA90
Sat 01:45:18 PM 42.4833 -71.0833 360° North 99 114 4,000 500 Climbing KA90
Sat 01:46:12 PM 42.5167 -71.1000 340° North 100 115 4,400 571 Climbing KA90
Sat 01:47:24 PM 42.5500 -71.1167 340° North 93 107 5,200 591 Climbing KA90
Sat 01:48:24 PM 42.5667 -71.1333 324° Northwest 96 110 5,700 500 Climbing KA90
Sat 01:49:24 PM 42.5833 -71.1500 324° Northwest 100 115 6,200 444 Climbing KA90
Sat 01:50:12 PM 42.6167 -71.1667 340° North 107 123 6,500 368 Climbing KA90
Sat 01:51:18 PM 42.6500 -71.1833 340° North 113 130 6,900 429 Climbing KA90
Sat 01:52:18 PM 42.6667 -71.2000 324° Northwest 114 131 7,400 421 Climbing KA90
Sat 01:53:12 PM 42.7000 -71.2333 324° Northwest 115 132 7,700 368 Climbing KA90
Sat 01:54:12 PM 42.7333 -71.2500 340° North 124 143 8,100 200 Climbing KA90
Sat 01:55:12 PM 42.7667 -71.2833 324° Northwest 142 163 8,100  Level KA90
Sat 01:56:12 PM 42.8000 -71.3167 324° Northwest 153 176 8,100  Level KA90
Sat 01:57:12 PM 42.8167 -71.3500 304° West 144 166 8,100  Level KA90
Sat 01:58:12 PM 42.8500 -71.3833 324° Northwest 141 162 8,100  Level KA90
Sat 01:59:06 PM 42.8667 -71.4167 304° West 141 162 8,100  Level KA90
Sat 02:00:12 PM 42.9000 -71.4667 312° West 137 158 8,100  Level KA90
Sat 02:01:12 PM 42.9333 -71.5000 324° Northwest 141 162 8,100  Level KA90
Sat 02:02:12 PM 42.9500 -71.5333 304° West 140 161 8,100  Level KA90
Sat 02:03:18 PM 42.9833 -71.5833 312° West 145 167 8,100 -42 Level KA90
Sat 02:04:35 PM 43.0186 -71.6392 311° West 158 182 8,000  Descending Boston Center
Sat 02:05:35 PM 43.0417 -71.6703 315° West 147 169 8,100 50 Climbing Boston Center
Sat 02:06:35 PM 43.0733 -71.7181 312° West 147 169 8,100  Level Boston Center
Sat 02:07:35 PM 43.0986 -71.7547 313° West 147 169 8,100  Level Boston Center
Sat 02:08:35 PM 43.1300 -71.7972 315° West 147 169 8,100  Level Boston Center
Sat 02:09:35 PM 43.1553 -71.8311 316° Northwest 142 163 8,100 -50 Level Boston Center
Sat 02:10:35 PM 43.1867 -71.8764 314° West 147 169 8,000 -50 Descending Boston Center
Sat 02:11:35 PM 43.2119 -71.9131 313° West 147 169 8,000  Level Boston Center
Sat 02:12:35 PM 43.2456 -71.9583 316° Northwest 147 169 8,000  Level Boston Center
Sat 02:13:35 PM 43.2706 -71.9953 313° West 147 169 8,000  Level Boston Center
Sat 02:14:35 PM 43.3000 -72.0406 312° West 147 169 8,000  Level Boston Center
Sat 02:15:35 PM 43.3294 -72.0806 315° West 147 169 8,000  Level Boston Center
Sat 02:16:47 PM 43.3608 -72.1231 315° West 147 169 8,000  Level Boston Center
Sat 02:17:47 PM 43.3922 -72.1714 312° West 142 163 8,000  Level Boston Center
Sat 02:18:47 PM 43.4214 -72.2114 315° West 142 163 8,000  Level Boston Center
Sat 02:19:47 PM 43.4486 -72.2542 311° West 142 163 8,000  Level Boston Center
Sat 02:20:47 PM 43.4756 -72.2942 313° West 142 163 8,000  Level Boston Center
Sat 02:21:47 PM 43.5028 -72.3342 313° West 142 163 8,000  Level Boston Center
Sat 02:22:47 PM 43.5300 -72.3714 315° West 142 163 8,000  Level Boston Center
Sat 02:23:47 PM 43.5569 -72.4114 313° West 142 163 8,000  Level Boston Center
Sat 02:24:47 PM 43.5842 -72.4517 313° West 142 163 8,000  Level Boston Center
Sat 02:25:47 PM 43.6111 -72.4947 311° West 142 163 8,000  Level Boston Center
Sat 02:26:47 PM 43.6403 -72.5347 315° West 142 163 8,000  Level Boston Center
Sat 02:27:47 PM 43.6675 -72.5722 315° West 142 163 8,000  Level Boston Center
Sat 02:28:47 PM 43.6944 -72.6153 311° West 147 169 8,000 50 Level Boston Center
Sat 02:29:47 PM 43.7194 -72.6469 318° Northwest 147 169 8,100 50 Climbing Boston Center
Sat 02:30:47 PM 43.7483 -72.6931 311° West 147 169 8,100  Level Boston Center
Sat 02:31:47 PM 43.7733 -72.7333 311° West 147 169 8,100  Level Boston Center
Sat 02:32:47 PM 43.8025 -72.7739 315° West 147 169 8,100  Level Boston Center
Sat 02:33:47 PM 43.8314 -72.8172 313° West 147 169 8,100  Level Boston Center
Sat 02:34:47 PM 43.8583 -72.8575 313° West 142 163 8,100  Level Boston Center
Sat 02:35:47 PM 43.8875 -72.9011 313° West 142 163 8,100  Level Boston Center
Sat 02:36:47 PM 43.9186 -72.9472 313° West 142 163 8,100  Level Boston Center
Sat 02:37:47 PM 43.9453 -72.9881 312° West 142 163 8,100  Level Boston Center
Sat 02:38:47 PM 43.9722 -73.0286 313° West 142 163 8,100  Level Boston Center
Sat 02:39:47 PM 43.9992 -73.0692 313° West 142 163 8,100  Level Boston Center
Sat 02:40:47 PM 44.0281 -73.1100 315° West 142 163 8,100  Level Boston Center
Sat 02:41:47 PM 44.0569 -73.1536 313° West 142 163 8,100  Level Boston Center
Sat 02:42:47 PM 44.0839 -73.1972 311° West 142 163 8,100  Level Boston Center
Sat 02:43:47 PM 44.1128 -73.2381 315° West 142 163 8,100  Level Boston Center
Sat 02:44:47 PM 44.1394 -73.2789 312° West 142 163 8,100  Level Boston Center
Sat 02:45:47 PM 44.1683 -73.3228 313° West 142 163 8,100  Level Boston Center
Sat 02:46:47 PM 44.1972 -73.3639 314° West 142 163 8,100  Level Boston Center
Sat 02:47:47 PM 44.2239 -73.4078 310° West 154 177 8,100  Level Boston Center
Sat 02:48:47 PM 44.2486 -73.4458 312° West 149 171 8,100  Level Boston Center
Sat 02:49:59 PM 44.2775 -73.4897 313° West 149 171 8,100 -91 Level Boston Center
Sat 02:50:59 PM 44.3122 -73.5397 314° West 149 171 7,900 -227 Descending Boston Center
Sat 02:52:11 PM 44.3431 -73.5867 313° West 149 171 7,600 -318 Descending Boston Center
Sat 02:53:11 PM 44.3822 -73.6456 313° West 154 177 7,200 -364 Descending Boston Center
Sat 02:54:23 PM 44.4128 -73.6897 314° West 159 183 6,800 -318 Descending Boston Center
Sat 02:55:23 PM 44.4436 -73.7369 312° West 159 183 6,500 -300 Descending Boston Center
Sat 02:56:23 PM 44.4744 -73.7811 314° West 159 183 6,200 -250 Descending Boston Center
Sat 02:57:23 PM 44.5050 -73.8344 309° West 159 183 6,000 -100 Descending Boston Center
Sat 02:58:23 PM 44.5317 -73.8728 314° West 153 176 6,000 -91 Level Boston Center
Sat 02:59:35 PM 44.5517 -73.9344 294° West 148 170 5,800 -227 Descending Boston Center
Sat 03:00:35 PM 44.5656 -73.9961 288° West 148 170 5,500 -250 Descending Boston Center
Sat 03:01:35 PM 44.5586 -74.0425 258° West 132 152 5,300 -300 Descending Boston Center
Sat 03:02:35 PM 44.5228 -74.0736 212° Southwest 135 155 4,900 -450 Descending Boston Center
Sat 03:03:35 PM 44.5017 -74.0961 217° Southwest 140 161 4,400 -750 Descending Boston Center
Sat 03:04:35 PM 44.4592 -74.1358 214° Southwest 140 161 3,400 -750 Descending Boston Center
Sat 03:05:59 PM 44.4256 -74.1697 216° Southwest 145 167 2,600 -571 Descending Boston Center
Sat 03:13:00 PM 44.3925 -74.1976 211° Southwest  Level FlightAware Approximate

Login

Don't have an account? Register now (free) for customized features, flight alerts, and more!